Time;durP1;ratioP1;P1;durP2;ratioP2;P2;SDS_P1;SDS_P2;PMS_P1;PMS_P2;Temp;Humidity;BMP_temperature;BMP_pressure;BME280_temperature;BME280_humidity;BME280_pressure;Samples;Min_cycle;Max_cycle;Signal;HPM_P1;HPM_P2
2021/08/03 00:16:11;;;;;;;3.70;3.40;;;13.50;99.90;;;;;;6299598;22;20526;-92
2021/08/03 00:19:01;;;;;;;3.30;3.10;;;13.50;99.90;;;;;;6264891;22;20510;-92
2021/08/03 00:25:13;;;;;;;4.10;3.73;;;13.40;99.90;;;;;;6193355;23;20770;-94
2021/08/03 00:28:47;;;;;;;;;;;;;;;;;;;;;
2021/08/03 04:51:54;;;;;;;2.57;2.37;;;13.10;99.90;;;;;;6140970;23;20412;-89
2021/08/03 05:53:44;;;;;;;3.27;3.07;;;13.50;99.90;;;;;;6033931;23;20490;-91
2021/08/03 05:56:57;;;;;;;3.20;3.00;;;13.70;99.90;;;;;;6059001;23;20452;-91
2021/08/03 06:47:36;;;;;;;3.80;2.90;;;15.00;99.90;;;;;;6254793;22;20524;-90
2021/08/03 06:50:36;;;;;;;3.53;3.17;;;15.10;99.90;;;;;;6242517;23;20445;-88
2021/08/03 06:53:44;;;;;;;3.53;2.80;;;15.40;99.90;;;;;;6247923;23;20427;-90
2021/08/03 07:00:35;;;;;;;2.50;1.57;;;15.90;99.90;;;;;;6234603;23;20388;-90
2021/08/03 07:03:36;;;;;;;7.20;2.17;;;15.90;99.90;;;;;;6171902;23;20403;-89
2021/08/03 07:06:45;;;;;;;2.57;2.30;;;15.90;99.90;;;;;;6201018;23;20397;-89
2021/08/03 07:09:14;;;;;;;5.97;2.47;;;15.90;99.90;;;;;;6235070;22;20471;-91
2021/08/03 07:42:59;;;;;;;2.10;2.00;;;17.10;99.90;;;;;;6264174;22;20501;-82
2021/08/03 07:45:25;;;;;;;5.63;2.47;;;17.00;99.90;;;;;;6232224;22;20502;-82
2021/08/03 07:47:51;;;;;;;2.53;2.03;;;16.90;99.90;;;;;;6262834;22;20397;-84
2021/08/03 07:50:17;;;;;;;2.37;1.90;;;17.00;99.90;;;;;;6237803;22;20170;-83
2021/08/03 07:52:42;;;;;;;2.17;1.90;;;17.20;99.90;;;;;;6264722;22;20217;-83
2021/08/03 07:55:08;;;;;;;1.70;1.50;;;17.30;99.90;;;;;;6237605;22;20162;-83
2021/08/03 07:57:34;;;;;;;2.87;2.20;;;17.50;99.90;;;;;;6238880;22;20682;-83
2021/08/03 07:59:59;;;;;;;2.27;1.90;;;17.60;99.90;;;;;;6239627;22;20860;-82
2021/08/03 08:02:25;;;;;;;1.93;1.83;;;17.60;99.90;;;;;;6237718;22;20664;-82
2021/08/03 08:04:51;;;;;;;2.13;1.93;;;17.70;99.90;;;;;;6238520;22;20166;-81
2021/08/03 08:07:16;;;;;;;1.70;1.60;;;17.60;99.90;;;;;;6238846;22;20230;-81
2021/08/03 08:09:42;;;;;;;2.20;2.00;;;17.40;99.90;;;;;;6240166;22;20189;-82
2021/08/03 08:12:08;;;;;;;3.47;1.70;;;17.60;99.90;;;;;;6239982;22;20188;-82
2021/08/03 08:14:34;;;;;;;3.40;1.90;;;17.80;99.90;;;;;;6238885;22;20397;-81
2021/08/03 08:17:01;;;;;;;3.83;2.03;;;18.10;99.90;;;;;;6238064;22;20173;-83
2021/08/03 08:19:27;;;;;;;3.10;2.00;;;18.00;99.90;;;;;;6237951;22;20990;-82
2021/08/03 08:21:53;;;;;;;2.27;1.63;;;18.10;99.90;;;;;;6239743;22;20397;-83
2021/08/03 08:24:19;;;;;;;2.10;2.00;;;18.20;99.90;;;;;;6238659;22;20404;-82
2021/08/03 08:26:46;;;;;;;2.60;2.40;;;18.20;99.90;;;;;;6238666;22;20181;-83
2021/08/03 08:29:16;;;;;;;2.30;2.10;;;18.20;99.90;;;;;;6239608;22;20190;-84
2021/08/03 08:31:43;;;;;;;2.60;2.10;;;17.80;99.90;;;;;;6238114;22;20426;-82
2021/08/03 08:34:10;;;;;;;4.13;2.00;;;17.40;99.90;;;;;;6238087;22;20437;-80
2021/08/03 08:36:36;;;;;;;2.17;2.07;;;17.50;99.90;;;;;;6238893;22;20390;-81
2021/08/03 08:39:03;;;;;;;2.60;2.00;;;17.80;99.90;;;;;;6240606;22;20397;-80
2021/08/03 08:41:29;;;;;;;2.20;1.90;;;18.10;99.90;;;;;;6238907;22;20239;-81
2021/08/03 08:43:55;;;;;;;3.27;2.40;;;18.40;99.90;;;;;;6266403;22;21027;-81
2021/08/03 08:46:21;;;;;;;2.20;2.00;;;18.70;99.90;;;;;;6238153;22;20158;-81
2021/08/03 08:48:47;;;;;;;2.20;2.10;;;18.70;99.90;;;;;;6214154;22;20198;-82
2021/08/03 08:51:13;;;;;;;2.07;1.97;;;18.90;99.90;;;;;;6238505;22;20158;-81
2021/08/03 08:53:39;;;;;;;3.00;2.70;;;19.00;99.90;;;;;;6238750;22;20404;-81
2021/08/03 08:56:05;;;;;;;2.43;2.10;;;18.80;99.90;;;;;;6238956;22;20404;-80
2021/08/03 08:58:32;;;;;;;3.80;2.40;;;18.70;99.90;;;;;;6238284;22;20189;-80
2021/08/03 09:00:58;;;;;;;2.60;2.10;;;18.40;99.90;;;;;;6238080;22;20422;-80
2021/08/03 09:03:24;;;;;;;3.50;2.00;;;18.60;99.90;;;;;;6238826;22;20480;-81
2021/08/03 09:06:05;;;;;;;2.13;2.03;;;19.00;99.90;;;;;;6265464;22;20397;-82
2021/08/03 09:08:39;;;;;;;3.03;1.93;;;19.40;99.90;;;;;;6236499;22;20182;-80
2021/08/03 09:11:13;;;;;;;3.67;1.97;;;19.70;99.90;;;;;;6237380;22;20499;-82
2021/08/03 09:14:01;;;;;;;4.20;2.30;;;19.60;99.90;;;;;;6240012;22;20458;-80
2021/08/03 09:16:42;;;;;;;2.77;2.47;;;19.50;99.90;;;;;;6238549;22;20397;-81
2021/08/03 09:19:35;;;;;;;3.67;2.20;;;19.50;99.90;;;;;;6239081;22;20411;-81
2021/08/03 09:22:19;;;;;;;2.70;2.37;;;19.70;99.90;;;;;;6240750;22;20393;-81
2021/08/03 09:24:47;;;;;;;2.20;1.97;;;19.90;99.90;;;;;;6265853;22;20446;-82
2021/08/03 09:27:38;;;;;;;12.60;7.30;;;19.80;99.90;;;;;;6238044;22;20376;-81
2021/08/03 09:30:28;;;;;;;5.80;5.00;;;19.60;99.90;;;;;;6238031;22;20444;-80
2021/08/03 09:32:54;;;;;;;4.53;4.13;;;19.60;99.90;;;;;;6237204;22;20400;-81
2021/08/03 09:35:21;;;;;;;7.60;6.13;;;19.50;99.90;;;;;;6239694;22;20542;-81
2021/08/03 09:37:48;;;;;;;2.80;2.60;;;19.30;99.90;;;;;;6238592;22;20173;-81
2021/08/03 09:40:30;;;;;;;3.87;2.53;;;19.30;99.90;;;;;;6239285;22;20393;-80
2021/08/03 09:43:09;;;;;;;3.47;2.60;;;19.20;99.90;;;;;;6239505;22;20419;-81
2021/08/03 09:45:42;;;;;;;2.67;2.47;;;19.00;99.90;;;;;;6237468;22;20519;-82
2021/08/03 09:48:13;;;;;;;2.37;2.20;;;19.00;99.90;;;;;;6239163;22;20475;-81
2021/08/03 09:50:54;;;;;;;3.43;2.57;;;18.80;99.90;;;;;;6238705;22;20767;-82
2021/08/03 09:53:50;;;;;;;3.27;2.40;;;18.70;99.90;;;;;;6238404;22;20396;-82
2021/08/03 09:56:37;;;;;;;3.00;2.50;;;18.50;99.90;;;;;;6241115;22;20403;-81
2021/08/03 09:59:09;;;;;;;2.80;2.60;;;18.30;99.90;;;;;;6267064;22;20389;-82
2021/08/03 10:01:40;;;;;;;6.77;6.10;;;18.00;99.90;;;;;;6237523;22;20845;-82
2021/08/03 10:04:10;;;;;;;3.87;3.00;;;17.80;99.90;;;;;;6236446;22;20494;-81
2021/08/03 10:06:38;;;;;;;3.20;2.90;;;17.80;99.90;;;;;;6239024;22;20835;-82
2021/08/03 10:09:05;;;;;;;2.80;2.43;;;17.60;99.90;;;;;;6239011;22;20440;-81
2021/08/03 10:11:31;;;;;;;4.50;3.07;;;17.50;99.90;;;;;;6239878;22;20435;-81
2021/08/03 10:13:57;;;;;;;3.17;2.90;;;17.50;99.90;;;;;;6236106;22;20405;-81
2021/08/03 10:16:24;;;;;;;2.97;2.77;;;17.60;99.90;;;;;;6237517;22;20161;-81
2021/08/03 10:18:56;;;;;;;4.37;2.90;;;17.70;99.90;;;;;;6237667;22;21465;-81
2021/08/03 10:21:35;;;;;;;3.67;3.23;;;17.70;99.90;;;;;;6240482;22;20400;-82
2021/08/03 10:24:10;;;;;;;2.90;2.60;;;17.80;99.90;;;;;;6239363;22;20882;-81
2021/08/03 10:26:36;;;;;;;3.00;2.80;;;17.80;99.90;;;;;;6240078;22;20436;-81
2021/08/03 10:29:26;;;;;;;3.20;2.60;;;17.90;99.90;;;;;;6266739;22;20967;-80
2021/08/03 10:31:53;;;;;;;4.53;2.83;;;17.60;99.90;;;;;;6240540;22;20423;-81
2021/08/03 10:34:43;;;;;;;3.27;2.97;;;17.50;99.90;;;;;;6264586;22;20463;-81
2021/08/03 10:37:10;;;;;;;5.13;2.40;;;17.50;99.90;;;;;;6267950;22;20397;-81
2021/08/03 10:39:53;;;;;;;4.07;2.87;;;17.50;99.90;;;;;;6266889;22;20458;-81
2021/08/03 10:42:21;;;;;;;4.10;2.37;;;17.60;99.90;;;;;;6267461;22;20430;-81
2021/08/03 10:44:50;;;;;;;4.57;2.40;;;18.00;99.90;;;;;;6267072;22;20478;-82
2021/08/03 10:47:31;;;;;;;2.83;2.57;;;18.40;99.90;;;;;;6240413;22;20483;-81
2021/08/03 10:50:14;;;;;;;2.73;2.03;;;19.30;99.90;;;;;;6268938;22;20464;-82
2021/08/03 10:52:48;;;;;;;2.30;2.10;;;20.30;99.90;;;;;;6238719;22;20412;-81
2021/08/03 10:55:38;;;;;;;3.23;2.63;;;20.00;99.90;;;;;;6239061;22;20401;-88
2021/08/03 10:58:16;;;;;;;2.17;1.97;;;20.10;99.90;;;;;;6241258;22;20944;-84
2021/08/03 11:01:01;;;;;;;2.27;2.07;;;20.40;99.90;;;;;;6240046;22;20388;-84
2021/08/03 11:03:36;;;;;;;2.43;2.20;;;20.60;99.90;;;;;;6237838;22;20692;-85
2021/08/03 11:06:20;;;;;;;2.10;1.93;;;20.70;99.90;;;;;;6232172;22;20396;-89
2021/08/03 12:53:12;;;;;;;1.83;1.73;;;18.60;99.90;;;;;;6249831;22;20454;-90
2021/08/03 13:41:13;;;;;;;1.13;1.13;;;19.10;99.90;;;;;;6265289;22;20400;-89
2021/08/03 13:50:34;;;;;;;1.20;1.10;;;18.80;99.90;;;;;;6272543;22;20443;-86
2021/08/03 13:53:37;;;;;;;1.60;1.40;;;18.80;99.90;;;;;;6089720;23;21063;-88
2021/08/03 14:00:28;;;;;;;1.50;1.40;;;19.00;99.90;;;;;;6027682;23;20785;-89
2021/08/03 14:03:18;;;;;;;2.40;1.23;;;19.20;99.90;;;;;;6002312;23;20639;-88
2021/08/03 14:06:02;;;;;;;2.50;1.50;;;19.00;99.90;;;;;;6004709;23;20407;-87
2021/08/03 14:08:28;;;;;;;1.30;1.27;;;19.00;99.90;;;;;;6007922;23;20433;-86
2021/08/03 14:11:32;;;;;;;2.93;1.70;;;18.80;99.90;;;;;;6149510;23;20431;-88
2021/08/03 14:14:50;;;;;;;1.43;1.37;;;18.80;99.90;;;;;;6149364;23;20426;-88
2021/08/03 14:26:44;;;;;;;2.93;1.40;;;19.20;99.90;;;;;;6266936;22;20456;-85
2021/08/03 14:29:10;;;;;;;1.60;1.50;;;18.90;99.90;;;;;;6240396;22;20436;-84
2021/08/03 14:31:40;;;;;;;2.80;1.30;;;18.90;99.90;;;;;;6240191;22;20400;-84
2021/08/03 14:34:06;;;;;;;1.17;1.13;;;18.70;99.90;;;;;;6240802;22;20166;-84
2021/08/03 14:36:32;;;;;;;1.20;1.10;;;18.60;99.90;;;;;;6241220;22;20882;-84
2021/08/03 14:44:53;;;;;;;1.20;1.10;;;18.60;99.90;;;;;;6243996;22;20427;-89
2021/08/03 14:56:08;;;;;;;1.50;1.00;;;20.10;99.90;;;;;;6267166;22;20448;-90
2021/08/03 14:58:40;;;;;;;0.80;0.80;;;20.30;99.90;;;;;;6234639;22;20521;-86
2021/08/03 15:12:59;;;;;;;1.37;1.27;;;20.50;99.90;;;;;;6258474;22;20385;-88
2021/08/03 15:24:43;;;;;;;1.13;1.03;;;19.30;99.90;;;;;;6267452;22;20439;-87
2021/08/03 15:27:44;;;;;;;0.90;0.90;;;19.20;99.90;;;;;;6216027;22;20392;-89
2021/08/03 15:30:28;;;;;;;1.00;1.00;;;19.20;99.90;;;;;;6268138;22;20478;-89
2021/08/03 15:40:40;;;;;;;1.00;0.90;;;19.10;99.90;;;;;;6253882;22;21254;-86
2021/08/03 15:43:08;;;;;;;0.93;0.93;;;18.90;99.90;;;;;;6235967;22;20406;-89
2021/08/03 16:04:27;;;;;;;1.27;1.17;;;19.10;99.90;;;;;;6265272;22;20505;-90
2021/08/03 16:12:30;;;;;;;1.40;1.30;;;19.40;99.90;;;;;;6267785;22;20799;-87
2021/08/03 16:15:06;;;;;;;1.43;1.33;;;19.30;99.90;;;;;;6234014;22;20409;-86
2021/08/03 16:25:40;;;;;;;1.40;1.30;;;19.40;99.90;;;;;;6237480;22;20868;-88
2021/08/03 16:28:52;;;;;;;2.03;1.53;;;19.10;99.90;;;;;;6191663;22;20434;-88
2021/08/03 16:37:41;;;;;;;1.30;1.20;;;19.00;99.90;;;;;;6146501;22;20461;-87
2021/08/03 16:40:42;;;;;;;1.60;1.50;;;19.00;99.90;;;;;;6238116;22;20396;-87
2021/08/03 16:43:10;;;;;;;1.20;1.17;;;18.80;99.90;;;;;;6264888;22;20389;-89
2021/08/03 16:46:12;;;;;;;1.93;1.37;;;18.70;99.90;;;;;;6264285;22;20404;-86
2021/08/03 16:48:55;;;;;;;1.37;1.27;;;18.60;99.90;;;;;;6235117;22;20933;-90
2021/08/03 16:51:36;;;;;;;1.70;1.43;;;18.50;99.90;;;;;;6239341;22;20393;-89
2021/08/03 16:54:02;;;;;;;1.50;1.40;;;18.50;99.90;;;;;;6235882;22;20389;-86
2021/08/03 16:56:38;;;;;;;1.70;1.60;;;18.50;99.90;;;;;;6235714;22;20393;-88
2021/08/03 16:59:35;;;;;;;1.60;1.50;;;18.40;99.90;;;;;;6239652;22;20154;-87
2021/08/03 17:02:11;;;;;;;1.70;1.23;;;18.40;99.90;;;;;;6273025;22;20420;-88
2021/08/03 17:05:12;;;;;;;1.57;1.47;;;18.40;99.90;;;;;;6240085;22;20401;-89
2021/08/03 17:22:30;;;;;;;;;;;;;;;;;;;;;
2021/08/03 18:05:17;;;;;;;1.70;1.40;;;17.60;99.90;;;;;;6234922;22;20951;-86
2021/08/03 19:26:27;;;;;;;2.40;2.20;;;16.60;99.90;;;;;;6269774;22;20455;-89
2021/08/03 19:29:11;;;;;;;2.80;1.93;;;16.60;99.90;;;;;;6241845;22;20436;-89
2021/08/03 19:31:52;;;;;;;;;;;;;;;;;;;;;
2021/08/03 19:50:20;;;;;;;2.53;2.20;;;16.50;99.90;;;;;;6252773;22;20466;-89
2021/08/03 19:54:02;;;;;;;1.87;1.77;;;16.60;99.90;;;;;;6122183;23;20556;-89
2021/08/03 19:56:55;;;;;;;2.20;2.03;;;16.50;99.90;;;;;;6185455;22;20397;-89
2021/08/03 19:59:37;;;;;;;2.33;1.90;;;16.40;99.90;;;;;;6240757;22;20416;-91
2021/08/03 20:02:15;;;;;;;2.00;1.80;;;16.40;99.90;;;;;;6236849;22;21558;-89
2021/08/03 20:20:45;;;;;;;;;;;;;;;;;;;;;
2021/08/03 20:28:55;;;;;;;2.50;2.10;;;16.10;99.90;;;;;;6255653;22;20456;-87
2021/08/03 20:49:37;;;;;;;3.80;2.20;;;16.10;99.90;;;;;;6057297;23;20434;-90
2021/08/03 20:52:38;;;;;;;2.67;2.47;;;16.10;99.90;;;;;;6027041;23;20399;-90
2021/08/03 21:03:13;;;;;;;2.37;2.17;;;16.00;99.90;;;;;;6139348;23;20738;-87
2021/08/03 21:06:39;;;;;;;;;;;;;;;;;;;;;
2021/08/03 21:13:06;;;;;;;;;;;;;;;;;;;;;
2021/08/03 21:19:12;;;;;;;3.60;2.43;;;15.90;99.90;;;;;;6115752;23;20756;-87
2021/08/03 21:22:29;;;;;;;2.40;2.20;;;15.90;99.90;;;;;;6226993;22;20385;-87
